sensor_id;sensor_type;location;lat;lon;timestamp;temperature;humidity
15217;DHT22;7711;46.634;14.318;2024-01-15T00:01:02;-6.60;1.00
15217;DHT22;7711;46.634;14.318;2024-01-15T00:03:29;-6.60;1.00
15217;DHT22;7711;46.634;14.318;2024-01-15T00:05:56;-6.70;1.00
15217;DHT22;7711;46.634;14.318;2024-01-15T00:08:23;-6.70;1.00
15217;DHT22;7711;46.634;14.318;2024-01-15T00:10:50;-6.60;1.00
15217;DHT22;7711;46.634;14.318;2024-01-15T00:13:16;-6.60;1.00
15217;DHT22;7711;46.634;14.318;2024-01-15T00:15:43;-6.60;1.00
15217;DHT22;7711;46.634;14.318;2024-01-15T00:18:12;-6.60;1.00
15217;DHT22;7711;46.634;14.318;2024-01-15T00:20:39;-6.60;1.00
15217;DHT22;7711;46.634;14.318;2024-01-15T00:23:06;-6.50;1.00
15217;DHT22;7711;46.634;14.318;2024-01-15T00:25:32;-6.60;1.00
15217;DHT22;7711;46.634;14.318;2024-01-15T00:28:00;-6.50;1.00
15217;DHT22;7711;46.634;14.318;2024-01-15T00:30:27;-6.50;1.00
15217;DHT22;7711;46.634;14.318;2024-01-15T00:32:54;-6.50;1.00
15217;DHT22;7711;46.634;14.318;2024-01-15T00:35:22;-6.50;1.00
15217;DHT22;7711;46.634;14.318;2024-01-15T00:37:49;-6.50;1.00
15217;DHT22;7711;46.634;14.318;2024-01-15T00:40:16;-6.50;1.00
15217;DHT22;7711;46.634;14.318;2024-01-15T00:42:43;-6.50;1.00
15217;DHT22;7711;46.634;14.318;2024-01-15T00:45:10;-6.50;1.00
15217;DHT22;7711;46.634;14.318;2024-01-15T00:47:37;-6.50;1.00
15217;DHT22;7711;46.634;14.318;2024-01-15T00:50:04;-6.50;1.00
15217;DHT22;7711;46.634;14.318;2024-01-15T00:52:33;-6.40;1.00
15217;DHT22;7711;46.634;14.318;2024-01-15T00:55:00;-6.50;1.00
15217;DHT22;7711;46.634;14.318;2024-01-15T00:57:27;-6.50;1.00
15217;DHT22;7711;46.634;14.318;2024-01-15T00:59:54;-6.40;1.00
15217;DHT22;7711;46.634;14.318;2024-01-15T01:02:21;-6.40;1.00
15217;DHT22;7711;46.634;14.318;2024-01-15T01:04:47;-6.40;1.00
15217;DHT22;7711;46.634;14.318;2024-01-15T01:07:14;-6.40;1.00
15217;DHT22;7711;46.634;14.318;2024-01-15T01:09:43;-6.40;1.00
15217;DHT22;7711;46.634;14.318;2024-01-15T01:12:11;-6.30;1.00
15217;DHT22;7711;46.634;14.318;2024-01-15T01:14:38;-6.30;1.00
15217;DHT22;7711;46.634;14.318;2024-01-15T01:17:05;-6.30;1.00
15217;DHT22;7711;46.634;14.318;2024-01-15T01:19:31;-6.20;1.00
15217;DHT22;7711;46.634;14.318;2024-01-15T01:21:58;-6.20;1.00
15217;DHT22;7711;46.634;14.318;2024-01-15T01:24:25;-6.10;1.00
15217;DHT22;7711;46.634;14.318;2024-01-15T01:26:54;-6.10;1.00
15217;DHT22;7711;46.634;14.318;2024-01-15T01:29:21;-6.10;1.00
15217;DHT22;7711;46.634;14.318;2024-01-15T01:31:48;-6.00;1.00
15217;DHT22;7711;46.634;14.318;2024-01-15T01:34:16;-6.00;1.00
15217;DHT22;7711;46.634;14.318;2024-01-15T01:36:43;-6.10;1.00
15217;DHT22;7711;46.634;14.318;2024-01-15T01:39:10;-6.10;1.00
15217;DHT22;7711;46.634;14.318;2024-01-15T01:41:38;-5.90;1.00
15217;DHT22;7711;46.634;14.318;2024-01-15T01:44:07;-5.90;1.00
15217;DHT22;7711;46.634;14.318;2024-01-15T01:46:34;-5.90;1.00
15217;DHT22;7711;46.634;14.318;2024-01-15T01:49:05;-5.80;1.00
15217;DHT22;7711;46.634;14.318;2024-01-15T01:51:33;-5.90;1.00
15217;DHT22;7711;46.634;14.318;2024-01-15T01:54:01;-5.90;1.00
15217;DHT22;7711;46.634;14.318;2024-01-15T01:56:28;-6.00;1.00
15217;DHT22;7711;46.634;14.318;2024-01-15T01:58:55;-6.00;1.00
15217;DHT22;7711;46.634;14.318;2024-01-15T02:01:24;-6.00;1.00
15217;DHT22;7711;46.634;14.318;2024-01-15T02:03:51;-5.90;1.00
15217;DHT22;7711;46.634;14.318;2024-01-15T02:06:18;-5.40;1.00
15217;DHT22;7711;46.634;14.318;2024-01-15T02:08:45;-5.90;1.00
15217;DHT22;7711;46.634;14.318;2024-01-15T02:11:12;-5.90;1.00
15217;DHT22;7711;46.634;14.318;2024-01-15T02:13:39;-5.40;1.00
15217;DHT22;7711;46.634;14.318;2024-01-15T02:16:06;-5.40;1.00
15217;DHT22;7711;46.634;14.318;2024-01-15T02:18:41;-5.80;1.00
15217;DHT22;7711;46.634;14.318;2024-01-15T02:21:08;-5.90;1.00
15217;DHT22;7711;46.634;14.318;2024-01-15T02:23:37;-6.10;1.00
15217;DHT22;7711;46.634;14.318;2024-01-15T02:26:05;-6.10;1.00
15217;DHT22;7711;46.634;14.318;2024-01-15T02:28:32;-6.00;1.00
15217;DHT22;7711;46.634;14.318;2024-01-15T02:30:59;-6.00;1.00
15217;DHT22;7711;46.634;14.318;2024-01-15T02:33:26;-6.10;1.00
15217;DHT22;7711;46.634;14.318;2024-01-15T02:35:54;-6.00;1.00
15217;DHT22;7711;46.634;14.318;2024-01-15T02:38:21;-6.00;1.00
15217;DHT22;7711;46.634;14.318;2024-01-15T02:40:49;-5.90;1.00
15217;DHT22;7711;46.634;14.318;2024-01-15T02:43:17;-5.90;1.00
15217;DHT22;7711;46.634;14.318;2024-01-15T02:45:44;-5.90;1.00
15217;DHT22;7711;46.634;14.318;2024-01-15T02:48:12;-5.90;1.00
15217;DHT22;7711;46.634;14.318;2024-01-15T02:50:39;-5.80;1.00
15217;DHT22;7711;46.634;14.318;2024-01-15T02:53:06;-5.90;1.00
15217;DHT22;7711;46.634;14.318;2024-01-15T02:55:33;-5.90;1.00
15217;DHT22;7711;46.634;14.318;2024-01-15T02:58:01;-5.70;1.00
15217;DHT22;7711;46.634;14.318;2024-01-15T03:00:28;-5.90;1.00
15217;DHT22;7711;46.634;14.318;2024-01-15T03:02:56;-5.80;1.00
15217;DHT22;7711;46.634;14.318;2024-01-15T03:05:23;-5.80;1.00
15217;DHT22;7711;46.634;14.318;2024-01-15T03:07:50;-5.70;1.00
15217;DHT22;7711;46.634;14.318;2024-01-15T03:10:17;-5.70;1.00
15217;DHT22;7711;46.634;14.318;2024-01-15T03:12:43;-5.70;1.00
15217;DHT22;7711;46.634;14.318;2024-01-15T03:15:12;-5.70;1.00
15217;DHT22;7711;46.634;14.318;2024-01-15T03:17:40;-5.80;1.00
15217;DHT22;7711;46.634;14.318;2024-01-15T03:20:08;-5.60;1.00
15217;DHT22;7711;46.634;14.318;2024-01-15T03:22:35;-5.80;1.00
15217;DHT22;7711;46.634;14.318;2024-01-15T03:25:03;-5.80;1.00
15217;DHT22;7711;46.634;14.318;2024-01-15T03:27:30;-5.70;1.00
15217;DHT22;7711;46.634;14.318;2024-01-15T03:29:57;-5.70;1.00
15217;DHT22;7711;46.634;14.318;2024-01-15T03:32:25;-5.70;1.00
15217;DHT22;7711;46.634;14.318;2024-01-15T03:34:52;-5.80;1.00
15217;DHT22;7711;46.634;14.318;2024-01-15T03:37:19;-5.80;1.00
15217;DHT22;7711;46.634;14.318;2024-01-15T03:39:46;-5.90;1.00
15217;DHT22;7711;46.634;14.318;2024-01-15T03:42:13;-5.90;1.00
15217;DHT22;7711;46.634;14.318;2024-01-15T03:44:40;-6.00;1.00
15217;DHT22;7711;46.634;14.318;2024-01-15T03:47:07;-6.10;1.00
15217;DHT22;7711;46.634;14.318;2024-01-15T03:49:36;-6.10;1.00
15217;DHT22;7711;46.634;14.318;2024-01-15T03:52:03;-6.00;1.00
15217;DHT22;7711;46.634;14.318;2024-01-15T03:54:30;-6.00;1.00
15217;DHT22;7711;46.634;14.318;2024-01-15T03:56:57;-5.90;1.00
15217;DHT22;7711;46.634;14.318;2024-01-15T03:59:24;-6.00;1.00
15217;DHT22;7711;46.634;14.318;2024-01-15T04:01:51;-5.90;1.00
15217;DHT22;7711;46.634;14.318;2024-01-15T04:04:18;-5.90;1.00
15217;DHT22;7711;46.634;14.318;2024-01-15T04:06:46;-5.80;1.00
15217;DHT22;7711;46.634;14.318;2024-01-15T04:09:13;-5.70;1.00
15217;DHT22;7711;46.634;14.318;2024-01-15T04:11:40;-5.80;1.00
15217;DHT22;7711;46.634;14.318;2024-01-15T04:14:07;-5.80;1.00
15217;DHT22;7711;46.634;14.318;2024-01-15T04:16:34;-5.80;1.00
15217;DHT22;7711;46.634;14.318;2024-01-15T04:19:01;-5.80;1.00
15217;DHT22;7711;46.634;14.318;2024-01-15T04:21:28;-5.80;1.00
15217;DHT22;7711;46.634;14.318;2024-01-15T04:23:56;-5.80;1.00
15217;DHT22;7711;46.634;14.318;2024-01-15T04:26:23;-5.80;1.00
15217;DHT22;7711;46.634;14.318;2024-01-15T04:28:50;-5.70;1.00
15217;DHT22;7711;46.634;14.318;2024-01-15T04:31:24;-5.70;1.00
15217;DHT22;7711;46.634;14.318;2024-01-15T04:33:52;-5.70;1.00
15217;DHT22;7711;46.634;14.318;2024-01-15T04:36:19;-5.70;1.00
15217;DHT22;7711;46.634;14.318;2024-01-15T04:38:46;-5.70;1.00
15217;DHT22;7711;46.634;14.318;2024-01-15T04:41:16;-5.70;1.00
15217;DHT22;7711;46.634;14.318;2024-01-15T04:43:43;-5.70;1.00
15217;DHT22;7711;46.634;14.318;2024-01-15T04:46:10;-5.70;1.00
15217;DHT22;7711;46.634;14.318;2024-01-15T04:48:37;-5.70;1.00
15217;DHT22;7711;46.634;14.318;2024-01-15T04:51:04;-5.70;1.00
15217;DHT22;7711;46.634;14.318;2024-01-15T04:53:32;-5.80;1.00
15217;DHT22;7711;46.634;14.318;2024-01-15T04:55:59;-5.80;1.00
15217;DHT22;7711;46.634;14.318;2024-01-15T04:58:28;-5.90;1.00
15217;DHT22;7711;46.634;14.318;2024-01-15T05:00:55;-5.90;1.00
15217;DHT22;7711;46.634;14.318;2024-01-15T05:03:22;-5.90;1.00
15217;DHT22;7711;46.634;14.318;2024-01-15T05:05:48;-6.00;1.00
15217;DHT22;7711;46.634;14.318;2024-01-15T05:08:15;-6.00;1.00
15217;DHT22;7711;46.634;14.318;2024-01-15T05:10:42;-6.00;1.00
15217;DHT22;7711;46.634;14.318;2024-01-15T05:13:09;-6.00;1.00
15217;DHT22;7711;46.634;14.318;2024-01-15T05:15:38;-6.00;1.00
15217;DHT22;7711;46.634;14.318;2024-01-15T05:18:05;-6.00;1.00
15217;DHT22;7711;46.634;14.318;2024-01-15T05:20:32;-6.00;1.00
15217;DHT22;7711;46.634;14.318;2024-01-15T05:22:58;-5.80;1.00
15217;DHT22;7711;46.634;14.318;2024-01-15T05:25:26;-5.90;1.00
15217;DHT22;7711;46.634;14.318;2024-01-15T05:27:53;-5.90;1.00
15217;DHT22;7711;46.634;14.318;2024-01-15T05:30:20;-5.90;1.00
15217;DHT22;7711;46.634;14.318;2024-01-15T05:32:48;-5.90;1.00
15217;DHT22;7711;46.634;14.318;2024-01-15T05:35:15;-5.90;1.00
15217;DHT22;7711;46.634;14.318;2024-01-15T05:37:44;-5.90;1.00
15217;DHT22;7711;46.634;14.318;2024-01-15T05:40:12;-5.90;1.00
15217;DHT22;7711;46.634;14.318;2024-01-15T05:42:39;-6.00;1.00
15217;DHT22;7711;46.634;14.318;2024-01-15T05:45:07;-5.90;1.00
15217;DHT22;7711;46.634;14.318;2024-01-15T05:47:34;-6.00;1.00
15217;DHT22;7711;46.634;14.318;2024-01-15T05:50:02;-6.00;1.00
15217;DHT22;7711;46.634;14.318;2024-01-15T05:52:30;-6.00;1.00
15217;DHT22;7711;46.634;14.318;2024-01-15T05:54:57;-6.10;1.00
15217;DHT22;7711;46.634;14.318;2024-01-15T05:57:24;-6.10;1.00
15217;DHT22;7711;46.634;14.318;2024-01-15T05:59:51;-6.10;1.00
15217;DHT22;7711;46.634;14.318;2024-01-15T06:02:18;-6.10;1.00
15217;DHT22;7711;46.634;14.318;2024-01-15T06:04:45;-6.20;1.00
15217;DHT22;7711;46.634;14.318;2024-01-15T06:07:13;-6.20;1.00
15217;DHT22;7711;46.634;14.318;2024-01-15T06:09:40;-6.20;1.00
15217;DHT22;7711;46.634;14.318;2024-01-15T06:12:08;-6.00;1.00
15217;DHT22;7711;46.634;14.318;2024-01-15T06:14:35;-6.20;1.00
15217;DHT22;7711;46.634;14.318;2024-01-15T06:17:02;-6.30;1.00
15217;DHT22;7711;46.634;14.318;2024-01-15T06:19:29;-6.30;1.00
15217;DHT22;7711;46.634;14.318;2024-01-15T06:21:55;-5.90;1.00
15217;DHT22;7711;46.634;14.318;2024-01-15T06:24:24;-6.30;1.00
15217;DHT22;7711;46.634;14.318;2024-01-15T06:26:51;-6.40;1.00
15217;DHT22;7711;46.634;14.318;2024-01-15T06:29:18;-6.40;1.00
15217;DHT22;7711;46.634;14.318;2024-01-15T06:31:45;-6.40;1.00
15217;DHT22;7711;46.634;14.318;2024-01-15T06:34:12;-6.50;1.00
15217;DHT22;7711;46.634;14.318;2024-01-15T06:36:39;-6.50;1.00
15217;DHT22;7711;46.634;14.318;2024-01-15T06:39:06;-6.60;1.00
15217;DHT22;7711;46.634;14.318;2024-01-15T06:41:34;-6.50;1.00
15217;DHT22;7711;46.634;14.318;2024-01-15T06:44:06;-6.60;1.00
15217;DHT22;7711;46.634;14.318;2024-01-15T06:46:35;-6.60;1.00
15217;DHT22;7711;46.634;14.318;2024-01-15T06:49:01;-6.60;1.00
15217;DHT22;7711;46.634;14.318;2024-01-15T06:51:29;-6.60;1.00
15217;DHT22;7711;46.634;14.318;2024-01-15T06:53:56;-6.60;1.00
15217;DHT22;7711;46.634;14.318;2024-01-15T06:56:23;-6.50;1.00
15217;DHT22;7711;46.634;14.318;2024-01-15T06:58:51;-6.50;1.00
15217;DHT22;7711;46.634;14.318;2024-01-15T07:01:18;-6.40;1.00
15217;DHT22;7711;46.634;14.318;2024-01-15T07:03:45;-6.40;1.00
15217;DHT22;7711;46.634;14.318;2024-01-15T07:06:12;-6.50;1.00
15217;DHT22;7711;46.634;14.318;2024-01-15T07:08:40;-6.50;1.00
15217;DHT22;7711;46.634;14.318;2024-01-15T07:11:07;-6.50;1.00
15217;DHT22;7711;46.634;14.318;2024-01-15T07:13:36;-6.50;1.00
15217;DHT22;7711;46.634;14.318;2024-01-15T07:16:04;-6.40;1.00
15217;DHT22;7711;46.634;14.318;2024-01-15T07:18:31;-6.40;1.00
15217;DHT22;7711;46.634;14.318;2024-01-15T07:20:58;-6.40;1.00
15217;DHT22;7711;46.634;14.318;2024-01-15T07:23:27;-6.40;1.00
15217;DHT22;7711;46.634;14.318;2024-01-15T07:25:54;-6.50;1.00
15217;DHT22;7711;46.634;14.318;2024-01-15T07:28:20;-6.50;1.00
15217;DHT22;7711;46.634;14.318;2024-01-15T07:30:47;-6.40;1.00
15217;DHT22;7711;46.634;14.318;2024-01-15T07:33:16;-6.40;1.00
15217;DHT22;7711;46.634;14.318;2024-01-15T07:35:43;-6.40;1.00
15217;DHT22;7711;46.634;14.318;2024-01-15T07:38:09;-6.40;1.00
15217;DHT22;7711;46.634;14.318;2024-01-15T07:40:37;-6.40;1.00
15217;DHT22;7711;46.634;14.318;2024-01-15T07:43:04;-6.40;1.00
15217;DHT22;7711;46.634;14.318;2024-01-15T07:45:31;-6.40;1.00
15217;DHT22;7711;46.634;14.318;2024-01-15T07:47:58;-6.30;1.00
15217;DHT22;7711;46.634;14.318;2024-01-15T07:50:26;-6.30;1.00
15217;DHT22;7711;46.634;14.318;2024-01-15T07:52:53;-6.20;1.00
15217;DHT22;7711;46.634;14.318;2024-01-15T07:55:20;-6.10;1.00
15217;DHT22;7711;46.634;14.318;2024-01-15T07:57:47;-6.10;1.00
15217;DHT22;7711;46.634;14.318;2024-01-15T08:00:15;-6.00;1.00
15217;DHT22;7711;46.634;14.318;2024-01-15T08:02:42;-5.90;1.00
15217;DHT22;7711;46.634;14.318;2024-01-15T08:05:09;-5.90;1.00
15217;DHT22;7711;46.634;14.318;2024-01-15T08:07:37;-5.90;1.00
15217;DHT22;7711;46.634;14.318;2024-01-15T08:10:05;-5.80;1.00
15217;DHT22;7711;46.634;14.318;2024-01-15T08:12:31;-5.70;1.00
15217;DHT22;7711;46.634;14.318;2024-01-15T08:14:58;-5.60;1.00
15217;DHT22;7711;46.634;14.318;2024-01-15T08:17:25;-5.50;1.00
15217;DHT22;7711;46.634;14.318;2024-01-15T08:19:54;-5.40;1.00
15217;DHT22;7711;46.634;14.318;2024-01-15T08:22:22;-5.40;1.00
15217;DHT22;7711;46.634;14.318;2024-01-15T08:24:50;-5.30;1.00
15217;DHT22;7711;46.634;14.318;2024-01-15T08:27:17;-5.20;1.00
15217;DHT22;7711;46.634;14.318;2024-01-15T08:29:45;-5.10;1.00
15217;DHT22;7711;46.634;14.318;2024-01-15T08:32:12;-5.10;1.00
15217;DHT22;7711;46.634;14.318;2024-01-15T08:34:41;-5.10;1.00
15217;DHT22;7711;46.634;14.318;2024-01-15T08:37:08;-5.10;1.00
15217;DHT22;7711;46.634;14.318;2024-01-15T08:39:35;-5.00;1.00
15217;DHT22;7711;46.634;14.318;2024-01-15T08:42:05;-4.90;1.00
15217;DHT22;7711;46.634;14.318;2024-01-15T08:44:32;-4.80;1.00
15217;DHT22;7711;46.634;14.318;2024-01-15T08:46:59;-4.70;1.00
15217;DHT22;7711;46.634;14.318;2024-01-15T08:49:26;-4.70;1.00
15217;DHT22;7711;46.634;14.318;2024-01-15T08:51:53;-4.70;1.00
15217;DHT22;7711;46.634;14.318;2024-01-15T08:54:20;-4.50;1.00
15217;DHT22;7711;46.634;14.318;2024-01-15T08:56:47;-4.60;1.00
15217;DHT22;7711;46.634;14.318;2024-01-15T08:59:15;-4.50;1.00
15217;DHT22;7711;46.634;14.318;2024-01-15T09:01:43;-4.40;1.00
15217;DHT22;7711;46.634;14.318;2024-01-15T09:04:10;-4.20;1.00
15217;DHT22;7711;46.634;14.318;2024-01-15T09:06:36;-4.10;1.00
15217;DHT22;7711;46.634;14.318;2024-01-15T09:09:03;-4.10;1.00
15217;DHT22;7711;46.634;14.318;2024-01-15T09:11:32;-4.10;1.00
15217;DHT22;7711;46.634;14.318;2024-01-15T09:13:59;-3.80;1.00
15217;DHT22;7711;46.634;14.318;2024-01-15T09:16:27;-3.90;1.00
15217;DHT22;7711;46.634;14.318;2024-01-15T09:18:54;-3.80;1.00
15217;DHT22;7711;46.634;14.318;2024-01-15T09:21:23;-3.70;1.00
15217;DHT22;7711;46.634;14.318;2024-01-15T09:23:50;-3.50;1.00
15217;DHT22;7711;46.634;14.318;2024-01-15T09:26:17;-3.40;1.00
15217;DHT22;7711;46.634;14.318;2024-01-15T09:28:44;-3.40;1.00
15217;DHT22;7711;46.634;14.318;2024-01-15T09:31:11;-3.30;1.00
15217;DHT22;7711;46.634;14.318;2024-01-15T09:33:39;-2.80;1.00
15217;DHT22;7711;46.634;14.318;2024-01-15T09:36:07;-3.20;1.00
15217;DHT22;7711;46.634;14.318;2024-01-15T09:38:33;-3.10;1.00
15217;DHT22;7711;46.634;14.318;2024-01-15T09:41:01;-2.80;1.00
15217;DHT22;7711;46.634;14.318;2024-01-15T09:43:27;-2.80;1.00
15217;DHT22;7711;46.634;14.318;2024-01-15T09:45:55;-2.70;1.00
15217;DHT22;7711;46.634;14.318;2024-01-15T09:48:22;-2.70;1.00
15217;DHT22;7711;46.634;14.318;2024-01-15T09:50:50;-2.70;1.00
15217;DHT22;7711;46.634;14.318;2024-01-15T09:53:18;-2.60;1.00
15217;DHT22;7711;46.634;14.318;2024-01-15T09:55:47;-2.60;99.90
15217;DHT22;7711;46.634;14.318;2024-01-15T09:58:16;-2.10;99.90
15217;DHT22;7711;46.634;14.318;2024-01-15T10:00:44;-2.30;99.90
15217;DHT22;7711;46.634;14.318;2024-01-15T10:03:11;-2.20;99.90
15217;DHT22;7711;46.634;14.318;2024-01-15T10:05:39;-1.80;99.90
15217;DHT22;7711;46.634;14.318;2024-01-15T10:08:08;-2.10;99.90
15217;DHT22;7711;46.634;14.318;2024-01-15T10:10:36;-2.00;99.90
15217;DHT22;7711;46.634;14.318;2024-01-15T10:13:04;-1.90;99.90
15217;DHT22;7711;46.634;14.318;2024-01-15T10:15:34;-1.80;99.90
15217;DHT22;7711;46.634;14.318;2024-01-15T10:18:02;-1.60;99.90
15217;DHT22;7711;46.634;14.318;2024-01-15T10:20:32;-1.60;99.90
15217;DHT22;7711;46.634;14.318;2024-01-15T10:22:59;-1.50;99.90
15217;DHT22;7711;46.634;14.318;2024-01-15T10:25:27;-1.30;99.90
15217;DHT22;7711;46.634;14.318;2024-01-15T10:28:01;-1.20;99.90
15217;DHT22;7711;46.634;14.318;2024-01-15T10:30:28;-1.00;99.90
15217;DHT22;7711;46.634;14.318;2024-01-15T10:32:59;-1.00;99.90
15217;DHT22;7711;46.634;14.318;2024-01-15T10:35:28;-0.90;99.90
15217;DHT22;7711;46.634;14.318;2024-01-15T10:37:55;-0.90;99.90
15217;DHT22;7711;46.634;14.318;2024-01-15T10:40:22;-0.80;99.90
15217;DHT22;7711;46.634;14.318;2024-01-15T10:42:51;-0.60;99.90
15217;DHT22;7711;46.634;14.318;2024-01-15T10:45:19;-0.50;99.90
15217;DHT22;7711;46.634;14.318;2024-01-15T10:47:46;-0.60;99.90
15217;DHT22;7711;46.634;14.318;2024-01-15T10:50:14;-0.60;99.90
15217;DHT22;7711;46.634;14.318;2024-01-15T10:52:42;-0.40;99.90
15217;DHT22;7711;46.634;14.318;2024-01-15T10:55:10;-0.20;99.90
15217;DHT22;7711;46.634;14.318;2024-01-15T10:57:37;0.00;99.90
15217;DHT22;7711;46.634;14.318;2024-01-15T11:00:07;0.40;99.90
15217;DHT22;7711;46.634;14.318;2024-01-15T11:02:40;0.50;99.90
15217;DHT22;7711;46.634;14.318;2024-01-15T11:05:10;0.60;99.90
15217;DHT22;7711;46.634;14.318;2024-01-15T11:07:39;0.80;99.90
15217;DHT22;7711;46.634;14.318;2024-01-15T11:10:08;0.80;99.90
15217;DHT22;7711;46.634;14.318;2024-01-15T11:12:55;0.90;99.90
15217;DHT22;7711;46.634;14.318;2024-01-15T11:15:23;0.90;99.90
15217;DHT22;7711;46.634;14.318;2024-01-15T11:18:01;0.90;99.90
15217;DHT22;7711;46.634;14.318;2024-01-15T11:20:31;1.20;99.90
15217;DHT22;7711;46.634;14.318;2024-01-15T11:22:58;1.40;99.90
15217;DHT22;7711;46.634;14.318;2024-01-15T11:25:34;1.60;99.90
15217;DHT22;7711;46.634;14.318;2024-01-15T11:28:02;1.70;99.90
15217;DHT22;7711;46.634;14.318;2024-01-15T11:30:30;1.60;99.90
15217;DHT22;7711;46.634;14.318;2024-01-15T11:33:02;1.70;99.90
15217;DHT22;7711;46.634;14.318;2024-01-15T11:35:50;1.70;99.90
15217;DHT22;7711;46.634;14.318;2024-01-15T11:38:35;1.70;99.90
15217;DHT22;7711;46.634;14.318;2024-01-15T11:41:13;1.40;99.90
15217;DHT22;7711;46.634;14.318;2024-01-15T11:43:41;1.60;99.90
15217;DHT22;7711;46.634;14.318;2024-01-15T11:46:11;1.60;99.90
15217;DHT22;7711;46.634;14.318;2024-01-15T11:48:43;1.70;99.90
15217;DHT22;7711;46.634;14.318;2024-01-15T11:51:11;1.70;99.90
15217;DHT22;7711;46.634;14.318;2024-01-15T11:53:43;1.60;99.90
15217;DHT22;7711;46.634;14.318;2024-01-15T11:56:16;1.80;99.90
15217;DHT22;7711;46.634;14.318;2024-01-15T11:58:43;2.00;99.90
15217;DHT22;7711;46.634;14.318;2024-01-15T12:01:12;2.20;99.90
15217;DHT22;7711;46.634;14.318;2024-01-15T12:03:39;2.10;99.90
15217;DHT22;7711;46.634;14.318;2024-01-15T12:06:06;2.30;99.90
15217;DHT22;7711;46.634;14.318;2024-01-15T12:08:33;2.40;99.90
15217;DHT22;7711;46.634;14.318;2024-01-15T12:11:04;2.30;99.90
15217;DHT22;7711;46.634;14.318;2024-01-15T12:13:32;2.40;99.90
15217;DHT22;7711;46.634;14.318;2024-01-15T12:16:01;2.40;99.90
15217;DHT22;7711;46.634;14.318;2024-01-15T12:18:31;2.60;99.90
15217;DHT22;7711;46.634;14.318;2024-01-15T12:20:58;2.50;99.90
15217;DHT22;7711;46.634;14.318;2024-01-15T12:23:25;2.70;99.90
15217;DHT22;7711;46.634;14.318;2024-01-15T12:25:53;2.90;99.90
15217;DHT22;7711;46.634;14.318;2024-01-15T12:28:20;2.90;99.90
15217;DHT22;7711;46.634;14.318;2024-01-15T12:30:48;2.80;99.90
15217;DHT22;7711;46.634;14.318;2024-01-15T12:33:17;3.00;99.90
15217;DHT22;7711;46.634;14.318;2024-01-15T12:35:46;3.20;99.90
15217;DHT22;7711;46.634;14.318;2024-01-15T12:38:14;3.20;99.90
15217;DHT22;7711;46.634;14.318;2024-01-15T12:40:44;3.20;99.90
15217;DHT22;7711;46.634;14.318;2024-01-15T12:43:12;3.10;99.90
15217;DHT22;7711;46.634;14.318;2024-01-15T12:45:39;3.00;99.90
15217;DHT22;7711;46.634;14.318;2024-01-15T12:48:07;3.20;99.90
15217;DHT22;7711;46.634;14.318;2024-01-15T12:50:34;3.40;99.90
15217;DHT22;7711;46.634;14.318;2024-01-15T12:53:02;3.30;99.90
15217;DHT22;7711;46.634;14.318;2024-01-15T12:55:29;3.50;99.90
15217;DHT22;7711;46.634;14.318;2024-01-15T12:57:57;3.70;99.90
15217;DHT22;7711;46.634;14.318;2024-01-15T13:00:24;3.90;99.90
15217;DHT22;7711;46.634;14.318;2024-01-15T13:02:51;4.00;99.90
15217;DHT22;7711;46.634;14.318;2024-01-15T13:05:20;3.80;99.90
15217;DHT22;7711;46.634;14.318;2024-01-15T13:07:47;4.00;99.90
15217;DHT22;7711;46.634;14.318;2024-01-15T13:10:15;4.20;99.90
15217;DHT22;7711;46.634;14.318;2024-01-15T13:12:42;4.40;99.90
15217;DHT22;7711;46.634;14.318;2024-01-15T13:15:09;4.90;99.90
15217;DHT22;7711;46.634;14.318;2024-01-15T13:17:37;5.30;99.90
15217;DHT22;7711;46.634;14.318;2024-01-15T13:20:06;5.90;99.90
15217;DHT22;7711;46.634;14.318;2024-01-15T13:22:33;6.20;99.90
15217;DHT22;7711;46.634;14.318;2024-01-15T13:25:00;6.40;99.90
15217;DHT22;7711;46.634;14.318;2024-01-15T13:27:30;6.90;99.90
15217;DHT22;7711;46.634;14.318;2024-01-15T13:29:57;6.20;99.90
15217;DHT22;7711;46.634;14.318;2024-01-15T13:32:26;6.10;99.90
15217;DHT22;7711;46.634;14.318;2024-01-15T13:34:53;6.40;99.90
15217;DHT22;7711;46.634;14.318;2024-01-15T13:37:21;6.90;99.90
15217;DHT22;7711;46.634;14.318;2024-01-15T13:39:50;7.60;99.90
15217;DHT22;7711;46.634;14.318;2024-01-15T13:42:17;7.80;99.90
15217;DHT22;7711;46.634;14.318;2024-01-15T13:44:48;7.50;99.90
15217;DHT22;7711;46.634;14.318;2024-01-15T13:47:16;7.10;99.90
15217;DHT22;7711;46.634;14.318;2024-01-15T13:49:43;6.90;99.90
15217;DHT22;7711;46.634;14.318;2024-01-15T13:52:10;7.20;99.90
15217;DHT22;7711;46.634;14.318;2024-01-15T13:54:38;7.10;99.90
15217;DHT22;7711;46.634;14.318;2024-01-15T13:57:05;7.00;99.90
15217;DHT22;7711;46.634;14.318;2024-01-15T13:59:32;6.00;99.90
15217;DHT22;7711;46.634;14.318;2024-01-15T14:02:00;6.10;99.90
15217;DHT22;7711;46.634;14.318;2024-01-15T14:04:27;6.10;99.90
15217;DHT22;7711;46.634;14.318;2024-01-15T14:06:55;5.70;99.90
15217;DHT22;7711;46.634;14.318;2024-01-15T14:09:22;5.10;99.90
15217;DHT22;7711;46.634;14.318;2024-01-15T14:11:50;4.60;99.90
15217;DHT22;7711;46.634;14.318;2024-01-15T14:14:17;4.40;99.90
15217;DHT22;7711;46.634;14.318;2024-01-15T14:16:44;4.00;99.90
15217;DHT22;7711;46.634;14.318;2024-01-15T14:19:13;3.60;99.90
15217;DHT22;7711;46.634;14.318;2024-01-15T14:21:40;3.50;99.90
15217;DHT22;7711;46.634;14.318;2024-01-15T14:24:08;3.00;99.90
15217;DHT22;7711;46.634;14.318;2024-01-15T14:26:35;2.90;99.90
15217;DHT22;7711;46.634;14.318;2024-01-15T14:29:02;2.70;99.90
15217;DHT22;7711;46.634;14.318;2024-01-15T14:31:29;2.50;99.90
15217;DHT22;7711;46.634;14.318;2024-01-15T14:33:56;2.20;99.90
15217;DHT22;7711;46.634;14.318;2024-01-15T14:36:25;2.10;99.90
15217;DHT22;7711;46.634;14.318;2024-01-15T14:38:52;2.00;99.90
15217;DHT22;7711;46.634;14.318;2024-01-15T14:41:19;1.80;99.90
15217;DHT22;7711;46.634;14.318;2024-01-15T14:43:46;1.70;99.90
15217;DHT22;7711;46.634;14.318;2024-01-15T14:46:13;1.60;99.90
15217;DHT22;7711;46.634;14.318;2024-01-15T14:48:40;1.40;99.90
15217;DHT22;7711;46.634;14.318;2024-01-15T14:51:08;1.30;99.90
15217;DHT22;7711;46.634;14.318;2024-01-15T14:53:36;1.30;99.90
15217;DHT22;7711;46.634;14.318;2024-01-15T14:56:03;1.20;99.90
15217;DHT22;7711;46.634;14.318;2024-01-15T14:58:31;1.10;99.90
15217;DHT22;7711;46.634;14.318;2024-01-15T15:00:58;1.00;99.90
15217;DHT22;7711;46.634;14.318;2024-01-15T15:03:25;1.00;99.90
15217;DHT22;7711;46.634;14.318;2024-01-15T15:05:52;0.90;99.90
15217;DHT22;7711;46.634;14.318;2024-01-15T15:08:19;0.70;99.90
15217;DHT22;7711;46.634;14.318;2024-01-15T15:10:47;0.70;99.90
15217;DHT22;7711;46.634;14.318;2024-01-15T15:13:14;0.50;99.90
15217;DHT22;7711;46.634;14.318;2024-01-15T15:15:41;0.50;99.90
15217;DHT22;7711;46.634;14.318;2024-01-15T15:18:08;0.40;99.90
15217;DHT22;7711;46.634;14.318;2024-01-15T15:20:35;0.30;99.90
15217;DHT22;7711;46.634;14.318;2024-01-15T15:23:03;0.20;99.90
15217;DHT22;7711;46.634;14.318;2024-01-15T15:25:33;0.10;99.90
15217;DHT22;7711;46.634;14.318;2024-01-15T15:28:02;0.00;99.90
15217;DHT22;7711;46.634;14.318;2024-01-15T15:30:30;-0.10;99.90
15217;DHT22;7711;46.634;14.318;2024-01-15T15:32:58;-0.30;99.90
15217;DHT22;7711;46.634;14.318;2024-01-15T15:35:25;-0.40;99.90
15217;DHT22;7711;46.634;14.318;2024-01-15T15:37:52;-0.50;99.90
15217;DHT22;7711;46.634;14.318;2024-01-15T15:40:19;-0.60;99.90
15217;DHT22;7711;46.634;14.318;2024-01-15T15:42:46;-0.70;99.90
15217;DHT22;7711;46.634;14.318;2024-01-15T15:45:15;-0.70;99.90
15217;DHT22;7711;46.634;14.318;2024-01-15T15:47:42;-0.80;99.90